Time;durP1;ratioP1;P1;durP2;ratioP2;P2;SDS_P1;SDS_P2;PMS_P1;PMS_P2;Temp;Humidity;BMP_temperature;BMP_pressure;BME280_temperature;BME280_humidity;BME280_pressure;Samples;Min_cycle;Max_cycle;Signal;HPM_P1;HPM_P2
2021/12/18 00:01:32;;;;;;;7.78;4.10;;;2.80;84.40;;;1.50;80.21;96671.09;4136789;33;20203;-84
2021/12/18 00:03:59;;;;;;;6.03;3.55;;;2.80;84.50;;;1.49;79.88;96672.94;4127062;34;20109;-84
2021/12/18 00:06:29;;;;;;;5.25;3.42;;;2.80;84.40;;;1.50;80.06;96684.59;4164006;33;19997;-84
2021/12/18 00:08:56;;;;;;;7.20;3.97;;;2.80;84.40;;;1.49;80.03;96677.53;4187939;33;20060;-83
2021/12/18 00:11:23;;;;;;;7.32;3.78;;;2.80;84.50;;;1.49;80.27;96677.53;4142035;33;20124;-84
2021/12/18 00:13:49;;;;;;;7.07;3.60;;;2.80;84.50;;;1.49;80.23;96678.34;4141744;33;20031;-84
2021/12/18 00:16:16;;;;;;;6.32;3.80;;;2.80;84.40;;;1.49;80.15;96683.75;4164120;33;20002;-85
2021/12/18 00:18:44;;;;;;;6.38;4.13;;;2.80;84.60;;;1.48;79.93;96676.72;4154654;34;20049;-85
2021/12/18 00:21:14;;;;;;;5.80;3.58;;;2.80;84.50;;;1.48;80.00;96683.97;4110630;34;19987;-84
2021/12/18 00:23:41;;;;;;;6.28;3.67;;;2.80;84.40;;;1.48;80.06;96682.09;4133834;34;19980;-84
2021/12/18 00:26:07;;;;;;;6.20;4.07;;;2.80;84.60;;;1.49;80.36;96683.75;4109571;34;20214;-84
2021/12/18 00:28:34;;;;;;;6.00;3.72;;;2.80;84.60;;;1.48;80.24;96684.81;4110027;34;20337;-85
2021/12/18 00:31:00;;;;;;;5.93;3.53;;;2.80;84.40;;;1.49;80.08;96688.31;4109869;34;20227;-85
2021/12/18 00:33:26;;;;;;;6.78;3.92;;;2.80;84.50;;;1.49;80.12;96693.72;4110087;34;20217;-84
2021/12/18 00:35:53;;;;;;;9.38;3.83;;;2.80;84.40;;;1.49;80.19;96697.22;4087683;34;20117;-85
2021/12/18 00:38:19;;;;;;;7.55;3.78;;;2.80;84.50;;;1.50;79.91;96695.38;4092202;33;19983;-84
2021/12/18 00:41:00;;;;;;;7.22;4.18;;;2.80;84.50;;;1.48;79.96;96697.44;4136913;33;20111;-84
2021/12/18 00:43:31;;;;;;;5.55;3.47;;;2.80;84.60;;;1.47;80.42;96699.31;4126052;33;20356;-84
2021/12/18 00:45:58;;;;;;;9.13;3.90;;;2.80;84.50;;;1.49;80.24;96699.94;4116779;33;20100;-84
2021/12/18 00:48:24;;;;;;;5.53;3.50;;;2.80;84.50;;;1.49;80.25;96699.94;4136600;33;20162;-84
2021/12/18 00:50:51;;;;;;;8.73;3.75;;;2.80;84.50;;;1.49;80.23;96705.31;4159208;33;20282;-84
2021/12/18 00:53:18;;;;;;;5.93;3.05;;;2.80;84.50;;;1.49;80.38;96704.50;4136646;33;19994;-84
2021/12/18 00:55:44;;;;;;;5.15;3.35;;;2.80;84.60;;;1.48;79.75;96703.69;4114224;33;19986;-84
2021/12/18 00:58:11;;;;;;;6.03;3.83;;;2.80;84.40;;;1.48;80.04;96701.00;4181887;33;20444;-84
2021/12/18 01:00:39;;;;;;;6.40;3.50;;;2.80;84.50;;;1.48;80.10;96702.84;4158803;33;20310;-84
2021/12/18 01:03:14;;;;;;;5.65;3.28;;;2.80;84.50;;;1.47;80.25;96699.31;4136607;33;19994;-84
2021/12/18 01:05:40;;;;;;;7.35;3.47;;;2.80;84.50;;;1.49;80.13;96713.41;4136912;33;20159;-84
2021/12/18 01:08:06;;;;;;;5.10;3.08;;;2.80;84.40;;;1.48;79.82;96709.09;4186490;33;20052;-84
2021/12/18 01:13:30;;;;;;;6.38;3.88;;;2.80;84.50;;;1.49;80.00;96704.50;4158016;33;20002;-84
2021/12/18 01:16:05;;;;;;;5.55;3.60;;;2.80;84.50;;;1.49;80.14;96708.03;4182276;33;20019;-84
2021/12/18 01:24:02;;;;;;;8.55;3.75;;;2.80;84.40;;;1.49;80.15;96716.13;4146789;33;19992;-84
2021/12/18 01:26:28;;;;;;;6.47;3.95;;;2.80;84.40;;;1.48;79.99;96713.63;4136076;33;19991;-84
2021/12/18 01:28:55;;;;;;;4.82;2.97;;;2.80;84.60;;;1.48;80.04;96719.03;4136067;33;20149;-84
2021/12/18 01:31:21;;;;;;;6.03;3.58;;;2.80;84.60;;;1.47;79.93;96710.13;4158647;33;20195;-84
2021/12/18 01:33:47;;;;;;;7.70;3.88;;;2.80;84.60;;;1.47;80.31;96701.16;4135937;33;20330;-84
2021/12/18 01:36:14;;;;;;;7.20;3.40;;;2.80;84.60;;;1.48;80.39;96709.09;4113879;33;20074;-84
2021/12/18 01:38:40;;;;;;;5.00;3.08;;;2.80;84.50;;;1.47;80.12;96707.41;4113561;33;20240;-84
2021/12/18 01:41:06;;;;;;;6.50;3.78;;;2.80;84.60;;;1.48;80.15;96710.94;4158420;33;19983;-84
2021/12/18 01:44:31;;;;;;;5.75;3.67;;;2.80;84.60;;;1.46;79.98;96713.84;4114096;33;20087;-84
2021/12/18 01:47:02;;;;;;;7.13;3.95;;;2.80;84.40;;;1.48;79.88;96719.88;4110879;33;20165;-84
2021/12/18 01:52:22;;;;;;;6.15;3.47;;;2.80;84.60;;;1.48;80.14;96724.44;4105704;33;20048;-84
2021/12/18 01:54:49;;;;;;;5.38;3.22;;;2.80;84.60;;;1.47;80.05;96718.22;4098648;34;19992;-83
2021/12/18 01:57:15;;;;;;;8.02;4.03;;;2.80;84.60;;;1.49;80.51;96720.69;4153683;34;19996;-84
2021/12/18 01:59:47;;;;;;;6.65;3.05;;;2.80;85.50;;;1.47;80.41;96720.06;4108820;34;20242;-84
2021/12/18 02:02:14;;;;;;;5.80;3.78;;;2.80;84.70;;;1.47;80.13;96723.59;4132044;34;20259;-84
2021/12/18 02:04:40;;;;;;;6.43;3.38;;;2.80;84.70;;;1.47;80.04;96723.59;4158266;33;20283;-84
2021/12/18 02:07:07;;;;;;;7.43;3.60;;;2.80;84.60;;;1.47;80.20;96731.69;4136008;33;20290;-84
2021/12/18 02:12:11;;;;;;;5.93;3.25;;;2.80;84.60;;;1.47;80.35;96733.53;4139338;33;20030;-84
2021/12/18 02:20:37;;;;;;;4.90;3.20;;;2.80;84.60;;;1.47;80.32;96736.25;4146227;33;20033;-84
2021/12/18 02:23:04;;;;;;;6.97;3.47;;;2.80;84.50;;;1.47;80.41;96744.34;4146349;33;20006;-84
2021/12/18 02:25:33;;;;;;;6.80;3.63;;;2.80;84.40;;;1.47;80.17;96745.19;4136462;33;20183;-84
2021/12/18 02:28:00;;;;;;;7.15;3.30;;;2.80;84.50;;;1.46;80.18;96740.81;4161078;33;20396;-84
2021/12/18 02:30:27;;;;;;;5.18;3.30;;;2.80;84.50;;;1.46;80.24;96729.19;4160509;33;20359;-84
2021/12/18 02:32:53;;;;;;;4.78;3.03;;;2.80;84.60;;;1.47;79.96;96734.41;4115833;33;19987;-84
2021/12/18 02:35:38;;;;;;;6.72;3.25;;;2.80;84.40;;;1.46;80.05;96727.34;4160381;33;19994;-84
2021/12/18 02:38:20;;;;;;;6.55;3.63;;;2.80;84.60;;;1.46;80.17;96721.94;4141625;33;20072;-84
2021/12/18 02:43:34;;;;;;;5.00;3.33;;;2.80;84.60;;;1.46;80.45;96721.94;4139468;33;19991;-84
2021/12/18 02:46:06;;;;;;;4.18;3.28;;;2.80;84.50;;;1.45;79.98;96725.66;4139717;33;20082;-84
2021/12/18 02:48:38;;;;;;;5.07;2.90;;;2.70;84.50;;;1.47;80.33;96728.16;4162803;33;19979;-84
2021/12/18 02:51:07;;;;;;;5.28;3.20;;;2.80;84.50;;;1.46;79.94;96729.19;4117623;33;20029;-84
2021/12/18 02:53:34;;;;;;;5.78;3.30;;;2.80;84.60;;;1.45;80.15;96736.47;4160315;33;20137;-84
2021/12/18 02:56:06;;;;;;;5.43;3.10;;;2.80;84.50;;;1.45;79.77;96749.94;4137593;33;20026;-84
2021/12/18 02:58:46;;;;;;;5.38;3.58;;;2.80;84.50;;;1.46;80.01;96748.91;4160166;33;20036;-84
2021/12/18 03:01:16;;;;;;;7.00;3.60;;;2.80;84.60;;;1.46;80.18;96754.31;4161669;33;20100;-84
2021/12/18 03:03:44;;;;;;;6.65;3.28;;;2.80;84.60;;;1.45;80.20;96758.03;4161368;33;20243;-84
2021/12/18 03:06:35;;;;;;;4.38;2.65;;;2.80;84.60;;;1.46;80.18;96754.31;4139831;33;20097;-84
2021/12/18 03:22:59;;;;;;;4.55;3.30;;;2.80;84.50;;;1.46;80.22;96765.09;4194923;33;19898;-84
2021/12/18 03:25:28;;;;;;;5.13;3.10;;;2.80;84.50;;;1.46;79.97;96770.50;4196210;33;20358;-84
2021/12/18 03:27:58;;;;;;;5.40;2.95;;;2.80;84.50;;;1.45;80.20;96768.84;4144175;33;20002;-83
2021/12/18 03:30:24;;;;;;;6.85;3.75;;;2.80;84.60;;;1.45;80.00;96779.63;4143823;33;19991;-84
2021/12/18 03:32:50;;;;;;;6.05;2.90;;;2.80;84.50;;;1.45;79.90;96779.63;4164915;33;20002;-84
2021/12/18 03:35:17;;;;;;;6.20;3.22;;;2.80;84.50;;;1.44;80.07;96767.16;4141921;33;19998;-83
2021/12/18 03:37:44;;;;;;;4.90;2.95;;;2.80;84.50;;;1.45;80.03;96778.78;4112915;34;19987;-84
2021/12/18 03:40:17;;;;;;;7.53;3.42;;;2.80;84.50;;;1.46;80.10;96780.44;4110673;34;20318;-84
2021/12/18 03:42:44;;;;;;;5.90;3.40;;;2.80;84.50;;;1.46;79.93;96783.13;4111715;34;19988;-84
2021/12/18 03:45:11;;;;;;;4.53;3.13;;;2.80;84.50;;;1.44;79.88;96777.97;4087092;34;20163;-84
2021/12/18 03:47:38;;;;;;;4.85;2.92;;;2.80;84.50;;;1.46;80.35;96785.84;4109838;34;20409;-84
2021/12/18 03:50:05;;;;;;;4.28;3.17;;;2.80;84.50;;;1.45;80.36;96790.41;4132562;33;20108;-84
2021/12/18 03:52:31;;;;;;;4.25;3.08;;;2.80;84.50;;;1.45;80.25;96793.13;4088866;34;20011;-84
2021/12/18 03:54:59;;;;;;;4.72;3.08;;;2.80;84.40;;;1.45;80.16;96785.03;4088133;34;20432;-84
2021/12/18 03:57:26;;;;;;;4.40;2.80;;;2.80;84.50;;;1.44;79.87;96777.97;4110518;34;20159;-84
2021/12/18 03:59:52;;;;;;;4.90;3.35;;;2.80;84.50;;;1.44;80.33;96780.66;4088287;34;20611;-84
2021/12/18 04:02:19;;;;;;;5.80;3.42;;;2.80;84.60;;;1.44;80.44;96782.50;4088199;34;20232;-84
2021/12/18 04:04:45;;;;;;;4.25;3.33;;;2.80;84.60;;;1.44;79.87;96783.34;4126706;33;20077;-84
2021/12/18 04:07:11;;;;;;;4.55;3.28;;;2.80;84.60;;;1.44;80.31;96777.97;4128868;33;20215;-84
2021/12/18 04:09:38;;;;;;;7.40;3.95;;;2.80;84.50;;;1.44;80.13;96791.44;4114757;33;20325;-84
2021/12/18 04:12:05;;;;;;;5.28;3.50;;;2.80;84.40;;;1.44;80.34;96794.16;4137037;33;20001;-84
2021/12/18 04:14:31;;;;;;;5.55;3.80;;;2.80;84.40;;;1.44;79.99;96799.53;4137109;33;20050;-84
2021/12/18 04:16:57;;;;;;;5.22;3.17;;;2.80;84.40;;;1.45;80.01;96795.81;4114389;33;20115;-84
2021/12/18 04:19:24;;;;;;;4.95;3.63;;;2.80;84.40;;;1.43;80.13;96791.63;4114992;33;20102;-85
2021/12/18 04:21:50;;;;;;;5.93;3.50;;;2.80;84.40;;;1.44;80.31;96802.25;4136787;33;20237;-84
2021/12/18 04:24:16;;;;;;;6.68;3.75;;;2.80;84.40;;;1.44;79.99;96815.72;4114228;33;20007;-84
2021/12/18 04:26:43;;;;;;;5.15;3.47;;;2.80;84.40;;;1.44;80.11;96822.97;4136774;33;20108;-84
2021/12/18 04:29:09;;;;;;;5.53;3.65;;;2.80;84.40;;;1.45;80.45;96819.25;4114802;33;20542;-84
2021/12/18 04:31:37;;;;;;;4.63;3.00;;;2.80;84.60;;;1.44;80.15;96822.97;4136618;33;20194;-84
2021/12/18 04:34:04;;;;;;;8.48;3.75;;;2.80;84.40;;;1.44;80.25;96829.22;4136885;33;20030;-84
2021/12/18 04:36:30;;;;;;;4.93;3.00;;;2.80;84.50;;;1.43;80.29;96824.84;4114541;33;19979;-84
2021/12/18 04:38:56;;;;;;;6.30;4.13;;;2.80;84.60;;;1.44;79.99;96831.91;4159277;33;20193;-84
2021/12/18 04:41:35;;;;;;;6.13;3.97;;;2.80;84.50;;;1.44;79.96;96839.16;4136698;33;20011;-84
2021/12/18 04:44:01;;;;;;;6.25;3.53;;;2.80;84.60;;;1.43;80.14;96841.03;4121341;33;20433;-84
2021/12/18 04:46:27;;;;;;;4.97;3.72;;;2.80;84.50;;;1.42;80.35;96850.16;4136179;33;20030;-84
2021/12/18 04:48:54;;;;;;;5.68;3.38;;;2.80;84.70;;;1.43;79.97;96857.22;4114507;33;20058;-84
2021/12/18 04:51:20;;;;;;;5.32;3.58;;;2.80;84.60;;;1.44;80.05;96858.03;4114188;33;20240;-84
2021/12/18 04:53:47;;;;;;;4.28;3.28;;;2.80;84.60;;;1.44;80.18;96858.03;4136667;33;19998;-84
2021/12/18 04:56:13;;;;;;;5.55;3.67;;;2.80;84.50;;;1.44;80.07;96858.03;4135882;33;19995;-84
2021/12/18 04:58:39;;;;;;;6.32;3.63;;;2.80;84.60;;;1.43;80.26;96857.22;4136419;33;20207;-84
2021/12/18 05:01:05;;;;;;;5.18;3.10;;;2.80;84.60;;;1.44;80.08;96864.28;4114389;33;20010;-84
2021/12/18 05:03:34;;;;;;;5.47;3.20;;;2.80;84.60;;;1.43;80.01;96876.13;4159071;33;19991;-84
2021/12/18 05:06:02;;;;;;;4.55;3.40;;;2.80;84.50;;;1.44;80.18;96875.09;4115688;33;20003;-84
2021/12/18 05:08:28;;;;;;;5.05;3.45;;;2.80;84.60;;;1.44;80.23;96874.22;4159870;33;20311;-84
2021/12/18 05:10:55;;;;;;;4.45;3.47;;;2.80;84.60;;;1.44;79.96;96880.47;4136416;33;20538;-84
2021/12/18 05:13:21;;;;;;;4.70;3.75;;;2.80;84.60;;;1.43;80.29;96884.19;4159194;33;20219;-84
2021/12/18 05:15:47;;;;;;;4.75;3.25;;;2.80;84.60;;;1.43;79.97;96894.16;4158610;33;20141;-84
2021/12/18 05:18:13;;;;;;;5.05;3.70;;;2.80;84.60;;;1.43;80.06;96895.00;4159112;33;20106;-84
2021/12/18 05:20:40;;;;;;;5.20;3.17;;;2.80;84.60;;;1.42;80.32;96896.03;4114248;33;20434;-84
2021/12/18 05:23:06;;;;;;;5.32;3.47;;;2.80;84.70;;;1.42;79.80;96892.50;4114131;33;20205;-84
2021/12/18 05:25:33;;;;;;;6.93;3.25;;;2.80;84.40;;;1.44;79.97;96898.50;4092155;33;20249;-84
2021/12/18 05:27:59;;;;;;;5.90;3.30;;;2.70;84.60;;;1.43;80.15;96896.84;4092259;33;20141;-84
2021/12/18 05:30:26;;;;;;;4.82;3.53;;;2.80;84.60;;;1.43;80.24;96904.94;4136426;33;20141;-85
2021/12/18 05:32:52;;;;;;;5.75;3.47;;;2.80;84.60;;;1.42;79.97;96901.41;4136200;33;20157;-84
2021/12/18 05:35:18;;;;;;;4.50;3.22;;;2.80;84.60;;;1.43;80.32;96903.09;4136241;33;19996;-84
2021/12/18 05:37:53;;;;;;;5.47;3.70;;;2.70;84.70;;;1.41;79.79;96902.44;4136500;33;20028;-84
2021/12/18 05:40:23;;;;;;;5.90;3.47;;;2.80;84.60;;;1.43;80.00;96916.56;4098135;33;19996;-84
2021/12/18 05:42:52;;;;;;;4.65;3.00;;;2.70;84.60;;;1.42;80.32;96917.59;4093447;33;20006;-84
2021/12/18 05:45:18;;;;;;;4.47;2.97;;;2.80;84.60;;;1.42;80.16;96925.69;4136525;33;20053;-84
2021/12/18 05:47:46;;;;;;;4.68;3.30;;;2.70;84.60;;;1.42;80.10;96932.97;4113997;33;20145;-84
2021/12/18 05:50:15;;;;;;;4.00;2.97;;;2.70;84.50;;;1.43;80.01;96938.16;4138060;33;19991;-85
2021/12/18 05:52:42;;;;;;;5.95;2.60;;;2.70;84.50;;;1.42;79.97;96936.50;4163261;33;20145;-85
2021/12/18 05:55:08;;;;;;;5.90;3.53;;;2.80;84.50;;;1.43;80.10;96948.09;4141073;33;20149;-85
2021/12/18 05:57:35;;;;;;;5.45;3.20;;;2.80;84.60;;;1.42;80.37;96949.97;4163540;33;20329;-85
2021/12/18 06:00:02;;;;;;;4.93;2.75;;;2.80;84.50;;;1.42;80.26;96949.97;4141146;33;20455;-84
2021/12/18 06:02:30;;;;;;;5.03;3.30;;;2.80;84.50;;;1.41;79.91;96951.00;4164666;34;19995;-85
2021/12/18 06:04:56;;;;;;;6.63;3.92;;;2.80;84.60;;;1.43;80.35;96953.50;4133611;34;19992;-85
2021/12/18 06:10:08;;;;;;;5.68;3.40;;;2.80;84.60;;;1.43;80.32;96953.50;4153728;33;20237;-84
2021/12/18 06:12:34;;;;;;;5.70;3.50;;;2.80;84.60;;;1.43;80.02;96959.75;4143332;33;20216;-85
2021/12/18 06:15:00;;;;;;;5.20;3.30;;;2.80;84.60;;;1.41;79.91;96959.09;4142884;33;19987;-85
2021/12/18 06:17:26;;;;;;;4.40;2.90;;;2.70;84.50;;;1.42;79.90;96963.47;4142961;33;20006;-85
2021/12/18 06:19:53;;;;;;;4.32;3.13;;;2.70;84.40;;;1.42;80.19;96962.66;4188322;33;20076;-85
2021/12/18 06:22:19;;;;;;;5.97;3.50;;;2.70;84.50;;;1.42;80.17;96971.56;4165518;33;20282;-85
2021/12/18 06:24:45;;;;;;;5.68;3.20;;;2.70;84.60;;;1.42;80.07;96979.66;4165233;33;19991;-84
2021/12/18 06:27:11;;;;;;;5.38;3.40;;;2.80;84.60;;;1.43;80.35;96991.28;4165603;33;19983;-84
2021/12/18 06:29:39;;;;;;;4.72;3.10;;;2.80;84.50;;;1.42;80.07;96997.72;4141349;33;20346;-85
2021/12/18 06:32:06;;;;;;;5.53;2.97;;;2.80;84.60;;;1.43;79.88;96997.53;4143385;33;20062;-84
2021/12/18 06:34:32;;;;;;;4.00;3.15;;;2.80;84.40;;;1.44;80.27;97009.97;4188451;33;20098;-84
2021/12/18 06:36:59;;;;;;;4.78;3.50;;;2.80;84.60;;;1.44;80.27;97009.97;4165544;33;20009;-84
2021/12/18 06:39:25;;;;;;;5.00;3.33;;;2.80;84.50;;;1.43;80.02;97013.72;4162930;33;19983;-84
2021/12/18 06:41:53;;;;;;;5.00;3.70;;;2.80;84.60;;;1.44;80.25;97009.97;4149123;33;20142;-85
2021/12/18 06:44:19;;;;;;;4.68;2.92;;;2.80;84.60;;;1.43;80.28;97013.72;4161250;33;19995;-85
2021/12/18 06:46:46;;;;;;;4.78;3.47;;;2.80;84.60;;;1.45;80.33;97018.91;4138317;33;20021;-85
2021/12/18 06:49:12;;;;;;;4.78;3.10;;;2.80;84.50;;;1.45;80.14;97016.19;4116115;33;19999;-84
2021/12/18 06:51:39;;;;;;;4.38;3.15;;;2.80;84.50;;;1.45;80.14;97025.16;4138194;33;19983;-84
2021/12/18 06:54:05;;;;;;;4.13;2.90;;;2.80;84.50;;;1.46;79.75;97020.56;4137783;33;20476;-84
2021/12/18 06:56:31;;;;;;;4.05;2.88;;;2.80;84.40;;;1.47;80.07;97031.19;4116133;33;20286;-85
2021/12/18 06:58:58;;;;;;;4.38;3.22;;;2.80;84.40;;;1.47;80.04;97039.28;4148223;33;20024;-85
2021/12/18 07:01:24;;;;;;;5.95;3.40;;;2.80;84.30;;;1.48;80.07;97037.41;4165613;33;20024;-84
2021/12/18 07:03:50;;;;;;;5.68;3.75;;;2.80;84.30;;;1.47;79.83;97036.59;4139035;33;20056;-85
2021/12/18 07:06:16;;;;;;;7.15;3.40;;;2.80;84.30;;;1.46;79.80;97034.91;4115406;33;20057;-85
2021/12/18 07:08:43;;;;;;;5.03;3.47;;;2.80;85.00;;;1.47;79.97;97036.59;4115806;33;20218;-84
2021/12/18 07:11:09;;;;;;;5.35;3.20;;;2.80;84.30;;;1.46;79.88;97040.31;4137602;33;19995;-85
2021/12/18 07:13:35;;;;;;;5.03;3.40;;;2.80;84.30;;;1.47;79.95;97047.38;4138121;33;20063;-85
2021/12/18 07:16:02;;;;;;;6.35;3.55;;;2.80;84.30;;;1.47;79.80;97047.38;4130932;33;20306;-85
2021/12/18 07:18:29;;;;;;;5.75;3.55;;;2.80;84.20;;;1.48;80.01;97042.81;4115939;33;19991;-85
2021/12/18 07:20:55;;;;;;;6.25;3.67;;;2.80;84.30;;;1.47;79.94;97036.59;4144783;33;19995;-85
2021/12/18 07:23:21;;;;;;;5.47;3.50;;;2.80;84.30;;;1.48;80.25;97040.97;4186806;33;20310;-84
2021/12/18 07:25:48;;;;;;;4.70;3.20;;;2.80;84.30;;;1.48;79.87;97029.31;4155468;33;20220;-85
2021/12/18 07:28:14;;;;;;;5.97;3.70;;;2.80;84.30;;;1.47;79.91;97041.97;4137667;33;20058;-86
2021/12/18 07:30:40;;;;;;;5.88;4.10;;;2.80;84.30;;;1.48;80.08;97035.56;4116030;33;20006;-85
2021/12/18 07:33:10;;;;;;;6.30;4.20;;;2.80;84.30;;;1.48;79.87;97038.25;4137838;33;20224;-86
2021/12/18 07:35:40;;;;;;;6.68;3.67;;;2.80;84.30;;;1.49;79.86;97048.00;4138750;33;20348;-86
2021/12/18 07:38:07;;;;;;;5.78;3.50;;;2.80;84.20;;;1.50;79.86;97048.84;4160302;33;20209;-86
2021/12/18 07:40:33;;;;;;;4.72;3.22;;;2.80;84.20;;;1.53;79.75;97056.56;4159923;33;20306;-86
2021/12/18 07:43:00;;;;;;;5.32;3.63;;;2.80;84.30;;;1.59;80.07;97071.16;4137432;33;20049;-85
2021/12/18 07:45:26;;;;;;;6.10;3.92;;;2.90;84.30;;;1.62;79.50;97074.31;4159857;33;19986;-86
2021/12/18 07:47:53;;;;;;;6.55;3.72;;;2.90;84.10;;;1.64;79.24;97072.25;4115368;33;20043;-86
2021/12/18 07:50:20;;;;;;;6.00;3.30;;;2.90;84.00;;;1.66;79.61;97082.84;4137658;33;20007;-86
2021/12/18 07:52:48;;;;;;;5.70;3.65;;;3.00;83.80;;;1.69;79.60;97077.06;4139652;33;20245;-85
2021/12/18 07:55:14;;;;;;;5.85;3.75;;;3.00;83.70;;;1.69;79.39;97077.88;4159820;33;19991;-85
2021/12/18 07:57:41;;;;;;;7.20;3.78;;;3.00;83.70;;;1.68;79.30;97075.41;4137433;33;20037;-86
2021/12/18 08:00:11;;;;;;;4.88;3.72;;;3.00;83.50;;;1.69;79.19;97083.28;4182914;33;20003;-86
2021/12/18 08:02:37;;;;;;;5.03;3.03;;;3.00;83.50;;;1.69;79.46;97090.56;4161486;33;19987;-86
2021/12/18 08:05:04;;;;;;;5.03;3.60;;;3.00;83.50;;;1.68;79.35;97091.59;4159751;33;20003;-86
2021/12/18 08:07:31;;;;;;;5.00;3.45;;;3.00;83.50;;;1.65;79.39;97086.56;4160532;33;19991;-86
2021/12/18 08:09:57;;;;;;;5.03;3.55;;;3.00;83.50;;;1.65;79.49;97097.38;4115166;33;20076;-85
2021/12/18 08:12:23;;;;;;;5.70;3.92;;;3.00;83.60;;;1.64;79.50;97095.69;4137630;33;20061;-85
2021/12/18 08:14:49;;;;;;;5.55;3.30;;;3.00;83.70;;;1.61;79.41;97105.00;4159414;33;20181;-86
2021/12/18 08:17:16;;;;;;;5.57;3.65;;;3.00;83.60;;;1.61;79.60;97101.50;4115520;33;19998;-86
2021/12/18 08:19:42;;;;;;;5.78;3.75;;;2.90;83.70;;;1.61;79.39;97112.28;4115301;33;19987;-86
2021/12/18 08:22:08;;;;;;;5.55;3.88;;;2.90;83.80;;;1.61;79.43;97107.72;4182913;33;20200;-85
2021/12/18 08:24:35;;;;;;;5.10;3.60;;;2.90;83.80;;;1.61;79.84;97107.72;4134519;33;20026;-85
2021/12/18 08:27:01;;;;;;;6.78;3.72;;;3.00;83.80;;;1.60;79.72;97100.63;4175275;33;19994;-85
2021/12/18 08:29:27;;;;;;;7.60;4.40;;;2.90;83.80;;;1.61;79.28;97104.19;4187411;33;20190;-85
2021/12/18 08:31:53;;;;;;;7.72;4.35;;;2.90;83.80;;;1.60;79.44;97099.81;4184041;33;20018;-85
2021/12/18 08:34:21;;;;;;;6.25;4.03;;;2.90;83.70;;;1.60;79.32;97105.22;4130462;33;19989;-85
2021/12/18 08:36:47;;;;;;;5.93;3.85;;;2.90;83.70;;;1.61;79.34;97106.88;4124604;33;20102;-85
2021/12/18 08:39:14;;;;;;;7.93;4.07;;;2.90;83.80;;;1.60;79.58;97100.63;4114911;33;19988;-85
2021/12/18 08:41:42;;;;;;;7.35;4.20;;;2.90;83.70;;;1.60;79.27;97107.91;4137036;33;20087;-85
2021/12/18 08:44:09;;;;;;;6.95;3.75;;;2.90;83.60;;;1.59;79.54;97104.38;4093844;33;20053;-85
2021/12/18 08:46:35;;;;;;;6.78;3.92;;;2.90;83.70;;;1.58;79.25;97101.88;4136885;33;20254;-85
2021/12/18 08:49:02;;;;;;;6.65;4.25;;;2.90;83.80;;;1.58;79.64;97108.09;4092588;33;19983;-85
2021/12/18 08:51:28;;;;;;;7.25;4.05;;;2.90;83.80;;;1.58;79.28;97099.16;4132378;34;20088;-85
2021/12/18 08:53:54;;;;;;;6.03;3.80;;;2.90;83.70;;;1.56;79.52;97103.91;4110097;34;20037;-85
2021/12/18 08:56:21;;;;;;;7.10;4.20;;;2.90;83.70;;;1.57;79.77;97100.19;4109755;33;20164;-85
2021/12/18 08:58:47;;;;;;;7.10;4.22;;;2.90;83.80;;;1.55;79.49;97097.66;4087683;34;20008;-84
2021/12/18 09:01:13;;;;;;;7.10;4.35;;;2.90;83.90;;;1.57;79.71;97100.19;4091581;33;20104;-85
2021/12/18 09:03:39;;;;;;;6.07;3.97;;;2.90;83.80;;;1.55;79.58;97107.63;4114343;33;20176;-84
2021/12/18 09:06:06;;;;;;;6.38;3.78;;;2.90;83.90;;;1.57;79.62;97113.69;4132528;33;20118;-85
2021/12/18 09:08:32;;;;;;;6.60;3.83;;;2.90;84.00;;;1.56;79.85;97117.41;4159295;33;19983;-85
2021/12/18 09:10:58;;;;;;;7.03;3.67;;;2.90;83.90;;;1.56;79.70;97120.09;4181923;33;20353;-85
2021/12/18 09:13:25;;;;;;;9.30;4.75;;;2.90;83.90;;;1.56;79.58;97117.41;4136920;33;19991;-85
2021/12/18 09:15:51;;;;;;;6.45;4.13;;;2.90;83.90;;;1.56;79.81;97120.09;4113968;33;19995;-85
2021/12/18 09:18:17;;;;;;;7.90;4.18;;;2.90;83.90;;;1.56;79.44;97117.41;4114272;33;20009;-85
2021/12/18 09:20:46;;;;;;;9.07;4.93;;;2.90;83.90;;;1.57;79.85;97124.47;4136676;33;20235;-84
2021/12/18 09:23:16;;;;;;;6.15;4.07;;;2.90;84.00;;;1.56;79.20;97126.31;4115749;33;20287;-85
2021/12/18 09:25:43;;;;;;;7.38;4.28;;;2.90;83.90;;;1.54;79.55;97117.63;4137250;33;20053;-85
2021/12/18 09:28:10;;;;;;;7.43;4.22;;;2.90;83.90;;;1.53;79.56;97122.16;4137096;33;19991;-85
2021/12/18 09:30:36;;;;;;;7.50;4.25;;;2.90;84.00;;;1.55;79.40;97123.84;4181753;33;19998;-85
2021/12/18 09:33:03;;;;;;;6.30;3.67;;;2.90;84.00;;;1.55;79.77;97118.44;4136695;33;20110;-85
2021/12/18 09:35:29;;;;;;;7.15;3.85;;;2.90;84.00;;;1.54;79.44;97114.91;4136052;33;19991;-85
2021/12/18 09:37:56;;;;;;;6.60;4.00;;;2.90;84.00;;;1.55;79.90;97116.56;4181913;33;20091;-85
2021/12/18 09:40:22;;;;;;;6.57;4.40;;;2.90;83.90;;;1.56;79.71;97120.09;4158435;33;20056;-85
2021/12/18 09:42:48;;;;;;;6.45;3.90;;;2.90;84.00;;;1.55;79.88;97113.03;4136951;33;19995;-85
2021/12/18 09:45:15;;;;;;;7.65;4.35;;;2.90;84.00;;;1.53;79.52;97116.75;4113602;33;20066;-85
2021/12/18 09:47:44;;;;;;;6.22;4.53;;;2.90;84.00;;;1.54;79.79;97117.63;4159177;33;20022;-85
2021/12/18 09:50:10;;;;;;;7.13;4.70;;;2.90;84.00;;;1.55;79.40;97113.03;4136637;33;20014;-85
2021/12/18 09:52:38;;;;;;;6.53;3.70;;;2.90;83.90;;;1.56;79.50;97117.41;4136283;33;20300;-85
2021/12/18 09:55:06;;;;;;;8.35;4.60;;;2.90;84.00;;;1.56;79.66;97109.31;4158300;33;20074;-85
2021/12/18 09:57:33;;;;;;;9.80;5.35;;;2.90;83.90;;;1.53;79.91;97111.38;4128960;34;20231;-85
2021/12/18 10:00:00;;;;;;;8.07;5.07;;;2.90;84.00;;;1.55;79.42;97113.84;4153675;34;20011;-85
2021/12/18 10:02:26;;;;;;;11.30;5.05;;;2.90;84.00;;;1.53;79.98;97108.66;4131579;34;20071;-85
2021/12/18 10:04:52;;;;;;;8.57;5.03;;;2.90;84.00;;;1.56;79.60;97120.09;4153508;34;20201;-85
2021/12/18 10:07:26;;;;;;;10.10;5.47;;;2.90;84.00;;;1.55;79.50;97107.63;4087229;34;20383;-85
2021/12/18 10:09:58;;;;;;;7.10;4.50;;;2.90;84.00;;;1.55;79.40;97113.84;4088062;34;19992;-85
2021/12/18 10:12:30;;;;;;;7.30;5.55;;;2.90;84.00;;;1.55;79.88;97113.84;4131679;34;20083;-85
2021/12/18 10:15:15;;;;;;;8.00;5.18;;;2.90;84.00;;;1.56;79.63;97101.22;4153591;34;20065;-85
2021/12/18 10:17:44;;;;;;;8.57;5.63;;;2.90;83.90;;;1.55;79.62;97113.03;4155675;34;20102;-85
2021/12/18 10:20:11;;;;;;;8.63;5.20;;;2.90;84.00;;;1.56;79.91;97109.31;4192362;33;20109;-85
2021/12/18 10:22:49;;;;;;;10.02;5.70;;;2.90;84.00;;;1.55;79.64;97113.84;4182578;33;20049;-85
2021/12/18 10:25:23;;;;;;;10.23;5.53;;;2.90;84.00;;;1.56;79.85;97112.00;4185601;33;20253;-85
2021/12/18 10:28:13;;;;;;;9.57;6.00;;;2.90;83.90;;;1.54;79.72;97106.81;4187403;33;20204;-85
2021/12/18 10:30:52;;;;;;;10.68;6.05;;;2.90;84.80;;;1.56;79.38;97122.81;4167107;33;20087;-85
2021/12/18 10:33:19;;;;;;;12.23;6.80;;;2.90;84.00;;;1.56;79.40;97109.31;4088689;34;19988;-85
2021/12/18 10:35:57;;;;;;;10.10;6.25;;;2.90;84.10;;;1.55;79.46;97107.63;4135578;33;20093;-85
2021/12/18 10:38:56;;;;;;;12.80;6.85;;;2.90;84.00;;;1.55;79.68;97108.47;4164834;33;20256;-85
2021/12/18 10:41:35;;;;;;;13.15;7.55;;;2.90;84.00;;;1.55;79.49;97110.34;4135229;33;20567;-85
2021/12/18 10:44:11;;;;;;;10.30;6.32;;;2.90;84.00;;;1.55;79.64;97118.44;4109145;34;20029;-85
2021/12/18 10:46:43;;;;;;;;;;;2.90;84.00;;;1.54;79.72;97109.50;4152296;33;20246;-85
2021/12/18 10:49:15;;;;;;;9.70;6.65;;;2.90;84.00;;;1.54;79.46;97104.13;4113796;33;19907;-85
2021/12/18 10:51:43;;;;;;;9.77;6.03;;;2.90;84.00;;;1.53;79.53;97108.66;4115776;33;20192;-85
2021/12/18 10:54:17;;;;;;;10.90;6.03;;;2.90;84.00;;;1.53;79.65;97105.97;4176278;33;20307;-85
2021/12/18 10:56:55;;;;;;;11.90;7.75;;;2.90;84.00;;;1.53;79.40;97108.66;4142614;33;20030;-83
2021/12/18 10:59:34;;;;;;;11.68;7.68;;;2.90;84.10;;;1.53;79.61;97111.38;4157869;33;20073;-84
2021/12/18 11:02:10;;;;;;;10.23;6.60;;;2.90;84.00;;;1.53;79.68;97100.56;4138731;33;20303;-84
2021/12/18 11:04:39;;;;;;;11.88;7.57;;;2.90;84.10;;;1.53;79.85;97097.06;4117114;33;20073;-84
2021/12/18 11:07:31;;;;;;;11.77;6.65;;;2.90;84.10;;;1.53;79.88;97097.88;4116809;33;20294;-84
2021/12/18 11:10:18;;;;;;;15.63;8.20;;;2.90;84.10;;;1.52;79.69;97098.91;4162281;33;20055;-84
2021/12/18 11:15:30;;;;;;;13.00;7.53;;;2.90;84.10;;;1.53;79.78;97095.16;4144244;33;20236;-84
2021/12/18 11:17:56;;;;;;;12.15;6.82;;;2.90;84.90;;;1.53;79.50;97089.78;4142509;33;20205;-84
2021/12/18 11:20:25;;;;;;;10.23;6.70;;;2.90;84.10;;;1.53;79.55;97087.06;4139066;33;19983;-85